Time;durP1;ratioP1;P1;durP2;ratioP2;P2;SDS_P1;SDS_P2;PMS_P1;PMS_P2;Temp;Humidity;BMP_temperature;BMP_pressure;BME280_temperature;BME280_humidity;BME280_pressure;Samples;Min_cycle;Max_cycle;Signal;HPM_P1;HPM_P2
2021/12/16 00:08:48;;;;;;;;;;;2.50;90.70;;;;;;5075482;28;19969;-67
2021/12/16 00:30:24;;;;;;;;;;;2.40;90.90;;;;;;5075112;28;20004;-67
2021/12/16 00:33:11;;;;;;;;;;;2.40;91.00;;;;;;5074757;28;19943;-67
2021/12/16 00:35:35;;;;;;;;;;;2.40;90.70;;;;;;5074555;28;19947;-67
2021/12/16 00:38:01;;;;;;;;;;;2.40;90.50;;;;;;5074561;28;20408;-67
2021/12/16 00:40:27;;;;;;;;;;;2.30;90.40;;;;;;5073341;28;19955;-67
2021/12/16 00:42:58;;;;;;;;;;;2.30;90.60;;;;;;5073264;28;20419;-67
2021/12/16 00:47:57;;;;;;;;;;;2.10;90.60;;;;;;5074773;28;20379;-67
2021/12/16 00:55:54;;;;;;;;;;;2.00;90.60;;;;;;5074634;28;19948;-67
2021/12/16 00:58:23;;;;;;;;;;;2.10;90.70;;;;;;5074175;28;19968;-67
2021/12/16 01:00:56;;;;;;;;;;;2.40;90.70;;;;;;5072943;28;19945;-67
2021/12/16 01:57:06;;;;;;;;;;;1.90;89.20;;;;;;5053525;28;19971;-67
2021/12/16 01:59:35;;;;;;;;;;;1.60;90.40;;;;;;5053296;28;19938;-67
2021/12/16 02:02:13;;;;;;;;;;;1.60;91.00;;;;;;5053187;28;20099;-67
2021/12/16 02:04:54;;;;;;;;;;;1.60;91.10;;;;;;5053175;28;19943;-67
2021/12/16 02:07:44;;;;;;;;;;;1.60;91.20;;;;;;5053153;28;19946;-67
2021/12/16 02:10:10;;;;;;;;;;;1.50;90.90;;;;;;5054186;28;19967;-67
2021/12/16 02:34:26;;;;;;;;;;;1.90;92.50;;;;;;5072956;28;19976;-67
2021/12/16 02:36:53;;;;;;;;;;;1.90;92.10;;;;;;5072815;28;19943;-67
2021/12/16 02:39:24;;;;;;;;;;;1.90;92.00;;;;;;5074060;28;19945;-67
2021/12/16 02:41:52;;;;;;;;;;;2.00;92.00;;;;;;5076887;28;19992;-67
2021/12/16 02:44:28;;;;;;;;;;;2.00;91.90;;;;;;5076783;28;19947;-67
2021/12/16 02:49:47;;;;;;;;;;;2.10;91.40;;;;;;5066364;28;19950;-67
2021/12/16 02:52:14;;;;;;;;;;;2.10;91.10;;;;;;5076707;28;20019;-67
2021/12/16 02:54:39;;;;;;;;;;;2.10;90.80;;;;;;5075364;28;19940;-67
2021/12/16 02:57:05;;;;;;;;;;;2.00;90.60;;;;;;5076548;28;19970;-67
2021/12/16 02:59:31;;;;;;;;;;;2.00;90.30;;;;;;5076539;28;20417;-67
2021/12/16 03:02:00;;;;;;;;;;;2.00;90.40;;;;;;5076490;28;20034;-67
2021/12/16 03:04:28;;;;;;;;;;;2.00;90.30;;;;;;5076410;28;20405;-67
2021/12/16 03:06:56;;;;;;;;;;;1.90;90.20;;;;;;5076408;28;19967;-67
2021/12/16 03:09:42;;;;;;;;;;;1.80;90.30;;;;;;5076307;28;19963;-67
2021/12/16 03:14:59;;;;;;;;;;;1.50;91.70;;;;;;5076548;28;20386;-67
2021/12/16 03:17:34;;;;;;;;;;;1.60;92.10;;;;;;5076116;28;20412;-67
2021/12/16 03:20:39;;;;;;;;;;;1.70;92.20;;;;;;5076184;28;19944;-67
2021/12/16 03:25:37;;;;;;;;;;;1.70;92.20;;;;;;5075989;28;20292;-67
2021/12/16 03:38:29;;;;;;;;;;;1.70;92.10;;;;;;5075863;28;20332;-67
2021/12/16 03:40:55;;;;;;;;;;;1.60;92.80;;;;;;5075803;28;20405;-67
2021/12/16 03:43:21;;;;;;;;;;;1.60;92.80;;;;;;5075724;28;20018;-67
2021/12/16 03:48:43;;;;;;;;;;;1.50;92.30;;;;;;5075982;28;20044;-67
2021/12/16 03:51:13;;;;;;;;;;;1.40;92.40;;;;;;5057060;28;20296;-67
2021/12/16 03:53:42;;;;;;;;;;;1.40;92.50;;;;;;5075556;28;20021;-67
2021/12/16 03:56:07;;;;;;;;;;;1.50;92.60;;;;;;5075448;28;19939;-67
2021/12/16 03:58:33;;;;;;;;;;;1.50;92.70;;;;;;5075484;28;20030;-67
2021/12/16 04:01:01;;;;;;;;;;;1.60;92.60;;;;;;5075455;28;20360;-67
2021/12/16 04:03:27;;;;;;;;;;;1.60;92.50;;;;;;5075403;28;19939;-67
2021/12/16 04:05:52;;;;;;;;;;;1.70;92.50;;;;;;5075344;28;19941;-67
2021/12/16 04:08:18;;;;;;;;;;;1.70;92.40;;;;;;5075236;28;19942;-67
2021/12/16 04:11:01;;;;;;;;;;;1.70;92.40;;;;;;5075094;28;20048;-67
2021/12/16 04:13:27;;;;;;;;;;;1.60;92.50;;;;;;5073858;28;20336;-67
2021/12/16 04:15:53;;;;;;;;;;;1.60;92.60;;;;;;5075174;28;19937;-67
2021/12/16 04:18:19;;;;;;;;;;;1.60;92.70;;;;;;5075011;28;20002;-67
2021/12/16 04:20:45;;;;;;;;;;;1.50;92.80;;;;;;5073763;28;20053;-67
2021/12/16 04:23:12;;;;;;;;;;;1.50;92.90;;;;;;5073681;28;19940;-67
2021/12/16 04:25:40;;;;;;;;;;;1.50;92.90;;;;;;5075173;28;20041;-67
2021/12/16 04:28:10;;;;;;;;;;;1.50;93.00;;;;;;5075151;28;19953;-67
2021/12/16 04:30:36;;;;;;;;;;;1.50;93.00;;;;;;5074795;28;20392;-67
2021/12/16 04:33:02;;;;;;;;;;;1.50;93.00;;;;;;5074821;28;20384;-67
2021/12/16 04:35:27;;;;;;;;;;;1.60;93.20;;;;;;5074743;28;19943;-67
2021/12/16 04:37:53;;;;;;;;;;;1.60;93.30;;;;;;5074637;28;19963;-67
2021/12/16 04:40:19;;;;;;;;;;;1.60;93.20;;;;;;5073329;28;19942;-67
2021/12/16 04:42:46;;;;;;;;;;;1.70;93.20;;;;;;5074612;28;19941;-67
2021/12/16 04:45:14;;;;;;;;;;;1.70;93.20;;;;;;5073279;28;19985;-67
2021/12/16 04:47:40;;;;;;;;;;;1.70;93.20;;;;;;5074535;28;19950;-67
2021/12/16 04:50:07;;;;;;;;;;;1.80;93.00;;;;;;5074428;28;19943;-67
2021/12/16 04:52:33;;;;;;;;;;;1.70;92.80;;;;;;5074343;28;19948;-67
2021/12/16 04:54:58;;;;;;;;;;;1.70;92.70;;;;;;5074360;28;19952;-67
2021/12/16 04:57:24;;;;;;;;;;;1.70;92.60;;;;;;5074224;28;20462;-67
2021/12/16 04:59:49;;;;;;;;;;;1.70;92.00;;;;;;5074249;28;20034;-67
2021/12/16 05:02:17;;;;;;;;;;;1.60;91.80;;;;;;5073814;28;19951;-67
2021/12/16 05:04:43;;;;;;;;;;;1.50;91.80;;;;;;5073589;28;19955;-67
2021/12/16 05:07:09;;;;;;;;;;;1.60;91.70;;;;;;5074067;28;19946;-67
2021/12/16 05:12:08;;;;;;;;;;;1.70;91.90;;;;;;5063809;22;19991;-67
2021/12/16 05:14:33;;;;;;;;;;;1.90;92.00;;;;;;5053992;28;19952;-67
2021/12/16 05:16:59;;;;;;;;;;;2.10;92.10;;;;;;5053838;28;19939;-67
2021/12/16 05:19:25;;;;;;;;;;;2.10;91.70;;;;;;5053938;28;19952;-67
2021/12/16 05:21:58;;;;;;;;;;;2.20;91.00;;;;;;5053919;28;19943;-67
2021/12/16 05:24:26;;;;;;;;;;;2.20;90.40;;;;;;5052554;28;19945;-67
2021/12/16 05:26:57;;;;;;;;;;;2.20;90.40;;;;;;5052427;28;19944;-67
2021/12/16 05:29:23;;;;;;;;;;;2.20;90.20;;;;;;5052455;28;20348;-67
2021/12/16 05:31:49;;;;;;;;;;;2.20;90.40;;;;;;5053686;28;20317;-67
2021/12/16 05:34:14;;;;;;;;;;;2.20;90.30;;;;;;5053683;28;19936;-67
2021/12/16 05:36:40;;;;;;;;;;;2.20;90.40;;;;;;5053844;28;19940;-67
2021/12/16 05:39:06;;;;;;;;;;;2.20;90.50;;;;;;5053601;28;20334;-67
2021/12/16 05:41:32;;;;;;;;;;;2.20;90.60;;;;;;5053413;28;19947;-67
2021/12/16 05:43:58;;;;;;;;;;;2.30;90.70;;;;;;5053533;28;19934;-67
2021/12/16 05:46:24;;;;;;;;;;;2.40;90.70;;;;;;5053486;28;19943;-67
2021/12/16 05:48:50;;;;;;;;;;;2.40;89.80;;;;;;5053437;28;19951;-67
2021/12/16 05:51:17;;;;;;;;;;;2.40;89.40;;;;;;5053332;28;19942;-67
2021/12/16 05:53:44;;;;;;;;;;;2.40;89.40;;;;;;5053393;28;19942;-67
2021/12/16 05:56:10;;;;;;;;;;;2.40;89.30;;;;;;5052533;28;19978;-67
2021/12/16 05:58:37;;;;;;;;;;;2.40;89.00;;;;;;5052714;28;20298;-67
2021/12/16 06:01:08;;;;;;;;;;;2.10;87.80;;;;;;5052966;28;20032;-67
2021/12/16 06:03:33;;;;;;;;;;;1.80;87.90;;;;;;5051148;28;20374;-67
2021/12/16 06:05:59;;;;;;;;;;;1.70;87.60;;;;;;5052210;28;19944;-67
2021/12/16 06:08:25;;;;;;;;;;;1.60;89.80;;;;;;5051592;28;20012;-67
2021/12/16 06:13:40;;;;;;;;;;;1.50;90.00;;;;;;5051973;28;20025;-67
2021/12/16 06:29:13;;;;;;;;;;;0.90;89.40;;;;;;5052774;28;19996;-67
2021/12/16 06:31:39;;;;;;;;;;;0.80;90.90;;;;;;5048327;28;19971;-67
2021/12/16 06:34:05;;;;;;;;;;;0.80;92.80;;;;;;5048125;28;20023;-67
2021/12/16 06:36:31;;;;;;;;;;;0.90;93.60;;;;;;5045142;28;20546;-67
2021/12/16 06:38:56;;;;;;;;;;;1.00;93.50;;;;;;5044093;28;19952;-67
2021/12/16 06:41:22;;;;;;;;;;;1.00;93.30;;;;;;5046835;28;20457;-67
2021/12/16 06:43:51;;;;;;;;;;;0.90;93.10;;;;;;5043665;28;20424;-67
2021/12/16 06:46:19;;;;;;;;;;;1.00;93.40;;;;;;5046821;28;19971;-67
2021/12/16 06:48:53;;;;;;;;;;;1.00;93.20;;;;;;5039133;28;19954;-67
2021/12/16 06:51:32;;;;;;;;;;;1.10;93.20;;;;;;5046212;28;19964;-67
2021/12/16 06:54:08;;;;;;;;;;;1.20;93.00;;;;;;5040841;28;19945;-67
2021/12/16 06:56:47;;;;;;;;;;;1.20;92.70;;;;;;5045563;28;19981;-67
2021/12/16 06:59:27;;;;;;;;;;;0.90;91.70;;;;;;5045704;28;19968;-67
2021/12/16 07:04:34;;;;;;;;;;;0.70;92.40;;;;;;5048329;28;19949;-67
2021/12/16 07:07:00;;;;;;;;;;;0.70;92.90;;;;;;5044520;28;19949;-67
2021/12/16 07:09:26;;;;;;;;;;;0.70;93.30;;;;;;5049608;28;20423;-67
2021/12/16 07:11:53;;;;;;;;;;;0.80;93.50;;;;;;5049552;28;19989;-67
2021/12/16 07:14:22;;;;;;;;;;;0.90;93.50;;;;;;5050084;28;19950;-67
2021/12/16 07:16:50;;;;;;;;;;;0.90;93.10;;;;;;5048973;28;20018;-67
2021/12/16 07:19:16;;;;;;;;;;;0.90;93.10;;;;;;5049316;28;19946;-67
2021/12/16 07:21:42;;;;;;;;;;;1.10;93.30;;;;;;5050678;28;20463;-67
2021/12/16 07:24:10;;;;;;;;;;;1.20;93.30;;;;;;5051022;28;19954;-67
2021/12/16 07:26:36;;;;;;;;;;;1.20;92.10;;;;;;5048212;28;20002;-67
2021/12/16 07:29:03;;;;;;;;;;;1.20;92.50;;;;;;5055660;28;20447;-67
2021/12/16 07:31:30;;;;;;;;;;;1.20;92.50;;;;;;5049385;28;20025;-67
2021/12/16 07:33:56;;;;;;;;;;;1.30;92.70;;;;;;5043899;28;19963;-67
2021/12/16 07:36:22;;;;;;;;;;;1.30;92.80;;;;;;5053632;28;19952;-67
2021/12/16 07:38:48;;;;;;;;;;;1.40;92.90;;;;;;5055003;28;19960;-67
2021/12/16 07:41:17;;;;;;;;;;;1.50;92.80;;;;;;5045755;28;19952;-67
2021/12/16 07:43:58;;;;;;;;;;;1.70;92.40;;;;;;5048103;28;19969;-67
2021/12/16 07:46:24;;;;;;;;;;;1.70;92.10;;;;;;5048949;28;19954;-67
2021/12/16 07:48:50;;;;;;;;;;;1.80;91.90;;;;;;5046253;28;20374;-67
2021/12/16 07:51:16;;;;;;;;;;;1.90;92.00;;;;;;5043635;28;20151;-67
2021/12/16 07:53:41;;;;;;;;;;;2.00;91.60;;;;;;5045361;28;19949;-67
2021/12/16 07:56:08;;;;;;;;;;;2.00;91.30;;;;;;5051823;28;20327;-67
2021/12/16 07:58:33;;;;;;;;;;;2.10;91.40;;;;;;5050526;28;20431;-67
2021/12/16 08:00:59;;;;;;;;;;;2.20;91.60;;;;;;5050152;28;19946;-67
2021/12/16 08:03:26;;;;;;;;;;;2.40;91.60;;;;;;5050645;28;19947;-67
2021/12/16 08:05:54;;;;;;;;;;;2.50;91.60;;;;;;5050856;28;20446;-67
2021/12/16 08:08:21;;;;;;;;;;;2.50;90.30;;;;;;5049684;28;19968;-67
2021/12/16 08:10:47;;;;;;;;;;;2.50;90.20;;;;;;5049010;28;19981;-67
2021/12/16 08:13:16;;;;;;;;;;;2.50;90.50;;;;;;5045951;28;19994;-67
2021/12/16 08:15:42;;;;;;;;;;;2.50;91.00;;;;;;5044546;28;20472;-67
2021/12/16 08:18:08;;;;;;;;;;;2.50;91.80;;;;;;5046918;28;19971;-67
2021/12/16 08:20:34;;;;;;;;;;;2.60;92.10;;;;;;5052273;28;19940;-67
2021/12/16 08:22:59;;;;;;;;;;;2.70;92.30;;;;;;5051290;28;19948;-67
2021/12/16 08:25:26;;;;;;;;;;;2.80;92.30;;;;;;5052906;28;20040;-67
2021/12/16 08:27:52;;;;;;;;;;;2.90;92.30;;;;;;5047304;28;20383;-67
2021/12/16 08:30:21;;;;;;;;;;;2.90;92.20;;;;;;5052399;28;19947;-67
2021/12/16 08:32:46;;;;;;;;;;;3.00;92.10;;;;;;5053819;28;20034;-67
2021/12/16 08:35:12;;;;;;;;;;;3.20;92.10;;;;;;5051225;28;20030;-67
2021/12/16 08:37:39;;;;;;;;;;;3.40;92.10;;;;;;5049287;28;19965;-67
2021/12/16 08:40:10;;;;;;;;;;;3.60;91.50;;;;;;5050020;28;19950;-67
2021/12/16 08:42:36;;;;;;;;;;;3.80;91.00;;;;;;5050698;28;19951;-67
2021/12/16 08:45:02;;;;;;;;;;;3.80;89.90;;;;;;5051334;28;19942;-67
2021/12/16 08:47:27;;;;;;;;;;;3.80;89.80;;;;;;5049071;28;19952;-68
2021/12/16 08:49:53;;;;;;;;;;;3.80;89.20;;;;;;5041560;28;19949;-67
2021/12/16 08:52:20;;;;;;;;;;;3.90;88.90;;;;;;5047246;28;19954;-67
2021/12/16 08:54:46;;;;;;;;;;;4.00;88.80;;;;;;5049602;28;19955;-67
2021/12/16 08:57:12;;;;;;;;;;;4.00;88.60;;;;;;5046149;28;19965;-67
2021/12/16 08:59:38;;;;;;;;;;;4.10;88.30;;;;;;5038575;28;19961;-67
2021/12/16 09:02:04;;;;;;;;;;;4.20;88.20;;;;;;5052767;28;20037;-67
2021/12/16 09:04:30;;;;;;;;;;;4.30;88.10;;;;;;5053124;28;20095;-67
2021/12/16 09:07:03;;;;;;;;;;;4.40;88.30;;;;;;5048738;28;21565;-67
2021/12/16 09:09:34;;;;;;;;;;;4.50;88.40;;;;;;5049410;28;19972;-67
2021/12/16 09:14:50;;;;;;;;;;;4.70;87.80;;;;;;5029018;28;19946;-67
2021/12/16 09:17:15;;;;;;;;;;;4.90;88.00;;;;;;5048151;28;19971;-67
2021/12/16 09:19:44;;;;;;;;;;;5.00;86.70;;;;;;5044556;28;19949;-67
2021/12/16 09:22:10;;;;;;;;;;;5.20;86.30;;;;;;5048130;28;20384;-67
2021/12/16 09:24:36;;;;;;;;;;;5.20;85.80;;;;;;5049655;28;20063;-67
2021/12/16 09:27:02;;;;;;;;;;;5.40;85.70;;;;;;5048284;28;19941;-67
2021/12/16 09:29:28;;;;;;;;;;;5.40;85.60;;;;;;5040461;28;19952;-67
2021/12/16 09:31:54;;;;;;;;;;;5.50;85.90;;;;;;5047989;28;19953;-67
2021/12/16 09:34:20;;;;;;;;;;;5.60;84.50;;;;;;5046012;28;19940;-67
2021/12/16 09:36:46;;;;;;;;;;;5.70;84.70;;;;;;5051154;28;20016;-67
2021/12/16 09:39:13;;;;;;;;;;;5.80;84.20;;;;;;5047927;28;19953;-67
2021/12/16 09:41:41;;;;;;;;;;;5.90;84.00;;;;;;5043425;28;19957;-67
2021/12/16 09:44:08;;;;;;;;;;;6.10;83.60;;;;;;5050369;28;20672;-67
2021/12/16 09:46:33;;;;;;;;;;;6.20;83.50;;;;;;5046421;28;19977;-68
2021/12/16 09:48:59;;;;;;;;;;;6.40;83.60;;;;;;5048804;28;20001;-67
2021/12/16 09:51:26;;;;;;;;;;;6.50;83.60;;;;;;5039449;28;20483;-67
2021/12/16 09:53:54;;;;;;;;;;;6.80;81.90;;;;;;5049803;28;20015;-67
2021/12/16 09:56:22;;;;;;;;;;;6.70;81.10;;;;;;5051113;28;19973;-67
2021/12/16 09:58:48;;;;;;;;;;;6.80;81.20;;;;;;5049118;28;20037;-67
2021/12/16 10:01:15;;;;;;;;;;;6.80;81.40;;;;;;5045455;28;19945;-67
2021/12/16 10:03:41;;;;;;;;;;;6.90;81.50;;;;;;5052058;28;20190;-67
2021/12/16 10:06:07;;;;;;;;;;;6.80;81.20;;;;;;5049697;28;20371;-67
2021/12/16 10:08:33;;;;;;;;;;;6.70;81.90;;;;;;5043277;28;20007;-67
2021/12/16 10:10:59;;;;;;;;;;;6.80;81.60;;;;;;5051071;28;19973;-67
2021/12/16 10:13:36;;;;;;;;;;;6.90;82.20;;;;;;5051169;28;20124;-67
2021/12/16 10:18:28;;;;;;;;;;;7.40;81.20;;;;;;5048736;28;19985;-67
2021/12/16 10:20:56;;;;;;;;;;;7.60;80.50;;;;;;5034723;28;20422;-67
2021/12/16 10:23:26;;;;;;;;;;;7.80;79.70;;;;;;5048312;28;19946;-67
2021/12/16 10:25:57;;;;;;;;;;;7.90;79.10;;;;;;5050605;28;20424;-67
2021/12/16 10:28:27;;;;;;;;;;;8.10;78.50;;;;;;5047494;28;20053;-67
2021/12/16 10:31:02;;;;;;;;;;;8.30;77.60;;;;;;5049813;28;19947;-67
2021/12/16 10:33:33;;;;;;;;;;;8.40;76.00;;;;;;5048155;28;19951;-67
2021/12/16 10:36:00;;;;;;;;;;;8.40;76.30;;;;;;5048287;28;19946;-67
2021/12/16 10:38:26;;;;;;;;;;;8.40;77.20;;;;;;5044390;28;19973;-67
2021/12/16 10:40:53;;;;;;;;;;;8.40;78.10;;;;;;5044681;28;19939;-67
2021/12/16 10:43:22;;;;;;;;;;;8.40;77.70;;;;;;5047811;28;19956;-67
2021/12/16 10:45:49;;;;;;;;;;;8.50;77.30;;;;;;5045935;28;19949;-67
2021/12/16 10:48:21;;;;;;;;;;;8.60;77.10;;;;;;5043276;28;19951;-67
2021/12/16 10:51:04;;;;;;;;;;;8.80;76.90;;;;;;5042559;28;19956;-67
2021/12/16 10:53:44;;;;;;;;;;;8.90;76.40;;;;;;5049293;28;19986;-67
2021/12/16 10:56:10;;;;;;;;;;;9.10;76.80;;;;;;5044356;28;20436;-67
2021/12/16 10:58:51;;;;;;;;;;;9.20;76.70;;;;;;5044247;28;19998;-67
2021/12/16 11:01:37;;;;;;;;;;;9.30;75.50;;;;;;5041417;28;19957;-67
2021/12/16 11:04:04;;;;;;;;;;;9.40;75.60;;;;;;5052256;28;19956;-67
2021/12/16 11:06:31;;;;;;;;;;;9.70;73.80;;;;;;5045053;28;19954;-67
2021/12/16 11:09:15;;;;;;;;;;;9.80;73.60;;;;;;5038801;28;20012;-67
2021/12/16 11:11:41;;;;;;;;;;;9.90;73.50;;;;;;5055029;28;20085;-67
2021/12/16 11:14:06;;;;;;;;;;;10.10;72.70;;;;;;5053487;28;20446;-67
2021/12/16 11:16:33;;;;;;;;;;;10.30;71.70;;;;;;5054740;28;20004;-67
2021/12/16 11:18:59;;;;;;;;;;;10.40;70.70;;;;;;5056106;28;20442;-67
2021/12/16 11:21:40;;;;;;;;;;;10.50;68.30;;;;;;5054806;28;19945;-67
2021/12/16 11:24:22;;;;;;;;;;;10.60;68.20;;;;;;5056091;28;19947;-67
2021/12/16 11:26:48;;;;;;;;;;;10.90;68.30;;;;;;5055949;28;19948;-67
2021/12/16 11:29:13;;;;;;;;;;;11.10;66.90;;;;;;5056250;28;19970;-67
2021/12/16 11:31:40;;;;;;;;;;;11.30;66.70;;;;;;5056183;28;20301;-67
2021/12/16 11:34:09;;;;;;;;;;;11.50;65.40;;;;;;5055937;28;19944;-67
2021/12/16 11:36:40;;;;;;;;;;;11.50;65.80;;;;;;5056164;28;19951;-67
2021/12/16 11:39:05;;;;;;;;;;;11.80;63.90;;;;;;5055880;28;20000;-67
2021/12/16 11:41:35;;;;;;;;;;;12.10;62.90;;;;;;5055837;28;20555;-67
2021/12/16 11:44:01;;;;;;;;;;;12.50;62.20;;;;;;5055771;28;19944;-66
2021/12/16 11:46:29;;;;;;;;;;;12.60;60.90;;;;;;5055958;28;19966;-67
2021/12/16 11:48:56;;;;;;;;;;;13.00;60.60;;;;;;5055715;28;19994;-67
2021/12/16 11:51:26;;;;;;;;;;;13.60;58.80;;;;;;5055644;28;19944;-67
2021/12/16 11:53:54;;;;;;;;;;;13.90;58.00;;;;;;5055601;28;19948;-67
2021/12/16 11:56:31;;;;;;;;;;;14.40;57.10;;;;;;5055522;28;19945;-67
2021/12/16 11:58:57;;;;;;;;;;;15.20;55.20;;;;;;5056101;28;19944;-67
2021/12/16 12:01:23;;;;;;;;;;;15.80;52.90;;;;;;5055435;28;20350;-67
2021/12/16 12:03:48;;;;;;;;;;;16.10;50.90;;;;;;5055342;28;20375;-67
2021/12/16 12:06:21;;;;;;;;;;;16.40;50.10;;;;;;5055278;28;19940;-67
2021/12/16 12:08:48;;;;;;;;;;;16.50;49.70;;;;;;5055202;28;20427;-67
2021/12/16 12:11:15;;;;;;;;;;;16.40;48.40;;;;;;5055102;28;19978;-67
2021/12/16 12:13:44;;;;;;;;;;;16.30;48.40;;;;;;5054646;28;19946;-67
2021/12/16 12:16:12;;;;;;;;;;;16.30;48.70;;;;;;5055089;28;19998;-67
2021/12/16 12:18:46;;;;;;;;;;;16.30;48.70;;;;;;5055032;28;19948;-67
2021/12/16 12:21:30;;;;;;;;;;;16.50;48.80;;;;;;5055052;28;20243;-67
2021/12/16 12:23:58;;;;;;;;;;;16.80;48.90;;;;;;5054914;28;20098;-67
2021/12/16 12:26:24;;;;;;;;;;;17.30;47.00;;;;;;5054733;28;20014;-67
2021/12/16 12:28:51;;;;;;;;;;;18.00;45.80;;;;;;5046919;28;19947;-67
2021/12/16 12:31:18;;;;;;;;;;;18.60;44.90;;;;;;5052522;28;20438;-68
2021/12/16 12:33:44;;;;;;;;;;;19.30;42.50;;;;;;5053573;28;19951;-67
2021/12/16 12:36:11;;;;;;;;;;;19.70;42.10;;;;;;5051362;28;19969;-67
2021/12/16 12:38:37;;;;;;;;;;;19.50;42.00;;;;;;5050557;28;20010;-67
2021/12/16 12:41:03;;;;;;;;;;;19.60;40.50;;;;;;5050454;28;19946;-66
2021/12/16 12:43:29;;;;;;;;;;;19.10;41.90;;;;;;5052010;28;19972;-67
2021/12/16 12:45:55;;;;;;;;;;;18.60;42.10;;;;;;5049174;28;20424;-67
2021/12/16 12:48:21;;;;;;;;;;;18.30;43.10;;;;;;5053300;28;19949;-67
2021/12/16 12:50:48;;;;;;;;;;;18.30;43.40;;;;;;5047204;28;20329;-67
2021/12/16 12:53:13;;;;;;;;;;;18.60;43.40;;;;;;5048947;28;19955;-67
2021/12/16 12:55:39;;;;;;;;;;;19.30;42.30;;;;;;5052663;28;20332;-67
2021/12/16 12:58:09;;;;;;;;;;;19.90;41.40;;;;;;5050849;28;19960;-67
2021/12/16 13:00:35;;;;;;;;;;;19.80;39.50;;;;;;5046727;28;19993;-67
2021/12/16 13:03:00;;;;;;;;;;;19.40;40.60;;;;;;5052789;28;19943;-67
2021/12/16 13:05:27;;;;;;;;;;;19.50;41.50;;;;;;5047821;28;20035;-67
2021/12/16 13:07:58;;;;;;;;;;;20.30;39.80;;;;;;5047096;28;19986;-67
2021/12/16 13:10:41;;;;;;;;;;;20.50;38.10;;;;;;5056073;23;19982;-67
2021/12/16 13:26:40;;;;;;;;;;;18.90;41.40;;;;;;5050741;28;19994;-67
2021/12/16 13:29:38;;;;;;;;;;;18.90;41.30;;;;;;5052277;28;19961;-66
2021/12/16 13:34:38;;;;;;;;;;;19.90;40.10;;;;;;5048476;28;20035;-67
2021/12/16 13:37:08;;;;;;;;;;;20.30;38.70;;;;;;5049808;28;19972;-67
2021/12/16 13:39:40;;;;;;;;;;;19.50;39.90;;;;;;5051816;28;19963;-67
2021/12/16 13:42:08;;;;;;;;;;;18.70;41.70;;;;;;5049844;28;19997;-67
2021/12/16 13:44:44;;;;;;;;;;;19.00;42.10;;;;;;5046751;28;19959;-67
2021/12/16 14:06:51;;;;;;;;;;;18.00;43.30;;;;;;5051488;28;20040;-67
2021/12/16 14:09:19;;;;;;;;;;;17.90;43.20;;;;;;5049037;28;19971;-67
2021/12/16 14:23:39;;;;;;;;;;;18.10;42.50;;;;;;5041599;28;20005;-67
2021/12/16 14:42:05;;;;;;;;;;;16.40;46.70;;;;;;5053996;28;19945;-66
2021/12/16 14:49:38;;;;;;;;;;;15.80;49.60;;;;;;5053278;28;19999;-66
2021/12/16 14:52:11;;;;;;;;;;;16.00;48.40;;;;;;5054136;28;20202;-66
2021/12/16 14:54:44;;;;;;;;;;;15.80;48.80;;;;;;5051265;28;20398;-66
2021/12/16 14:57:10;;;;;;;;;;;15.80;48.90;;;;;;5053384;28;19975;-66
2021/12/16 14:59:35;;;;;;;;;;;15.70;48.60;;;;;;5054519;28;19951;-66
2021/12/16 15:02:01;;;;;;;;;;;15.50;48.80;;;;;;5052862;28;20348;-65
2021/12/16 15:04:29;;;;;;;;;;;14.90;49.90;;;;;;5052408;28;19950;-66
2021/12/16 15:07:03;;;;;;;;;;;14.50;51.30;;;;;;5053268;28;19947;-66
2021/12/16 15:09:33;;;;;;;;;;;14.20;52.50;;;;;;5051551;28;19965;-67
2021/12/16 15:12:04;;;;;;;;;;;13.30;54.80;;;;;;5053187;28;19983;-66
2021/12/16 15:15:22;;;;;;;;;;;12.90;56.90;;;;;;5048855;28;19948;-66
2021/12/16 15:36:51;;;;;;;;;;;10.80;65.70;;;;;;5052850;28;20267;-66
2021/12/16 15:39:45;;;;;;;;;;;10.50;66.50;;;;;;5052872;28;19948;-66
2021/12/16 15:44:53;;;;;;;;;;;9.90;69.30;;;;;;5052398;28;20309;-66
2021/12/16 15:47:20;;;;;;;;;;;9.60;69.30;;;;;;5051685;28;20020;-66
2021/12/16 15:49:45;;;;;;;;;;;9.40;69.60;;;;;;5052533;28;20048;-66
2021/12/16 15:52:11;;;;;;;;;;;9.40;69.90;;;;;;5052445;28;19996;-66
2021/12/16 15:54:37;;;;;;;;;;;9.30;70.10;;;;;;5052437;28;19951;-66
2021/12/16 15:57:03;;;;;;;;;;;9.10;70.50;;;;;;5051984;28;19979;-66
2021/12/16 15:59:29;;;;;;;;;;;8.90;71.60;;;;;;5049388;28;19963;-66
2021/12/16 16:01:56;;;;;;;;;;;8.70;72.70;;;;;;5052595;28;20292;-66
2021/12/16 16:04:23;;;;;;;;;;;8.50;73.40;;;;;;5054321;28;19950;-66
2021/12/16 16:07:07;;;;;;;;;;;8.40;73.50;;;;;;5050466;28;19951;-66
2021/12/16 16:09:37;;;;;;;;;;;8.30;74.00;;;;;;5051706;28;20431;-66
2021/12/16 16:12:03;;;;;;;;;;;8.00;74.90;;;;;;5051258;28;20310;-66
2021/12/16 16:14:32;;;;;;;;;;;7.90;75.80;;;;;;5052263;28;19951;-66
2021/12/16 16:16:59;;;;;;;;;;;7.60;76.70;;;;;;5053109;28;20055;-66
2021/12/16 16:19:27;;;;;;;;;;;7.60;77.10;;;;;;5052107;28;20038;-66
2021/12/16 16:21:55;;;;;;;;;;;7.50;77.40;;;;;;5051736;28;19957;-66
2021/12/16 16:24:24;;;;;;;;;;;7.50;78.00;;;;;;5051808;28;19954;-66
2021/12/16 16:26:53;;;;;;;;;;;7.60;78.00;;;;;;5052748;28;19946;-67
2021/12/16 16:29:19;;;;;;;;;;;7.50;77.80;;;;;;5046311;28;20044;-66
2021/12/16 16:31:46;;;;;;;;;;;7.60;77.90;;;;;;5051390;28;20026;-66
2021/12/16 16:34:13;;;;;;;;;;;7.60;78.30;;;;;;5049824;28;20318;-66
2021/12/16 16:36:43;;;;;;;;;;;7.50;78.70;;;;;;5051976;28;20421;-66
2021/12/16 16:39:11;;;;;;;;;;;7.40;78.80;;;;;;5046711;28;19953;-66
2021/12/16 16:41:38;;;;;;;;;;;7.40;79.00;;;;;;5041087;28;19948;-65
2021/12/16 16:44:07;;;;;;;;;;;7.20;79.30;;;;;;5051454;28;20034;-66
2021/12/16 16:46:39;;;;;;;;;;;7.00;78.80;;;;;;5050527;28;19958;-66
2021/12/16 16:49:08;;;;;;;;;;;6.90;79.40;;;;;;5048213;28;19957;-66
2021/12/16 16:51:38;;;;;;;;;;;6.70;79.80;;;;;;5051681;28;19962;-66
2021/12/16 16:54:06;;;;;;;;;;;6.70;80.00;;;;;;5050606;28;19958;-66
2021/12/16 16:56:34;;;;;;;;;;;6.70;80.80;;;;;;5050193;28;19948;-66
2021/12/16 16:59:02;;;;;;;;;;;6.80;81.30;;;;;;5046909;28;19975;-66
2021/12/16 17:01:29;;;;;;;;;;;6.90;80.70;;;;;;5051695;28;20045;-66
2021/12/16 17:03:54;;;;;;;;;;;6.90;79.60;;;;;;5050083;28;19968;-66
2021/12/16 17:06:20;;;;;;;;;;;6.90;79.40;;;;;;5051845;28;20337;-66
2021/12/16 17:08:46;;;;;;;;;;;6.70;77.90;;;;;;5052737;28;19986;-66
2021/12/16 17:11:15;;;;;;;;;;;6.60;77.70;;;;;;5051201;28;19980;-66
2021/12/16 17:14:13;;;;;;;;;;;6.40;78.50;;;;;;5052885;28;19949;-66
2021/12/16 17:19:34;;;;;;;;;;;5.90;82.90;;;;;;5052920;28;20390;-66
2021/12/16 17:22:00;;;;;;;;;;;5.80;83.20;;;;;;5051827;28;19958;-66
2021/12/16 17:24:28;;;;;;;;;;;5.70;83.00;;;;;;5052982;28;20353;-66
2021/12/16 17:27:04;;;;;;;;;;;5.70;83.50;;;;;;5052964;28;20000;-75
2021/12/16 17:29:37;;;;;;;;;;;5.70;83.40;;;;;;5052375;28;19950;-72
2021/12/16 17:32:04;;;;;;;;;;;5.70;83.20;;;;;;5052524;28;20225;-66
2021/12/16 17:34:32;;;;;;;;;;;5.70;82.90;;;;;;5051450;28;20409;-66
2021/12/16 17:37:03;;;;;;;;;;;5.70;83.00;;;;;;5041866;28;19973;-66
2021/12/16 17:39:31;;;;;;;;;;;5.80;83.20;;;;;;5043459;28;19959;-66
2021/12/16 17:42:03;;;;;;;;;;;5.80;83.10;;;;;;5048477;28;19979;-66
2021/12/16 17:44:29;;;;;;;;;;;5.70;84.30;;;;;;5047839;28;19954;-66
2021/12/16 17:47:01;;;;;;;;;;;5.70;85.10;;;;;;5052485;28;20011;-65
2021/12/16 17:49:26;;;;;;;;;;;5.90;85.60;;;;;;5051328;28;19953;-65
2021/12/16 17:51:52;;;;;;;;;;;5.90;85.50;;;;;;5052597;28;19947;-66
2021/12/16 17:54:17;;;;;;;;;;;5.90;85.60;;;;;;5053251;28;19940;-66
2021/12/16 17:56:56;;;;;;;;;;;6.00;85.60;;;;;;5049238;28;19942;-66
2021/12/16 17:59:29;;;;;;;;;;;6.00;84.60;;;;;;5037648;28;19942;-66
2021/12/16 18:01:55;;;;;;;;;;;6.00;83.60;;;;;;5043611;28;20319;-66
2021/12/16 18:04:22;;;;;;;;;;;5.90;82.60;;;;;;5052645;28;19949;-66
2021/12/16 18:06:53;;;;;;;;;;;5.60;80.80;;;;;;5051058;28;19942;-66
2021/12/16 18:09:30;;;;;;;;;;;5.10;81.40;;;;;;5050602;28;20449;-66
2021/12/16 18:11:58;;;;;;;;;;;4.80;82.80;;;;;;5043324;28;19976;-65
2021/12/16 18:14:26;;;;;;;;;;;4.70;85.50;;;;;;5051365;28;19949;-66
2021/12/16 18:17:03;;;;;;;;;;;4.80;86.20;;;;;;5051561;28;19998;-65
2021/12/16 18:19:43;;;;;;;;;;;5.00;86.30;;;;;;5053025;28;20041;-66
2021/12/16 18:22:14;;;;;;;;;;;5.00;85.40;;;;;;5051727;28;20041;-65
2021/12/16 18:24:44;;;;;;;;;;;5.00;85.60;;;;;;5052937;28;19938;-66
2021/12/16 18:27:19;;;;;;;;;;;5.00;85.40;;;;;;5053102;28;19940;-66
2021/12/16 18:29:45;;;;;;;;;;;4.90;85.50;;;;;;5051616;28;19944;-66
2021/12/16 18:32:10;;;;;;;;;;;4.90;85.10;;;;;;5051582;28;20295;-66
2021/12/16 18:34:36;;;;;;;;;;;4.80;84.50;;;;;;5052912;28;19950;-66
2021/12/16 18:37:06;;;;;;;;;;;4.70;84.00;;;;;;5052838;28;20299;-66
2021/12/16 18:39:34;;;;;;;;;;;4.70;84.60;;;;;;5052881;28;19950;-66
2021/12/16 18:42:09;;;;;;;;;;;4.70;85.80;;;;;;5052866;28;19939;-65
2021/12/16 18:44:40;;;;;;;;;;;4.70;85.90;;;;;;5052855;28;19942;-66
2021/12/16 18:47:35;;;;;;;;;;;4.70;86.40;;;;;;5052821;28;19969;-65
2021/12/16 18:50:10;;;;;;;;;;;4.70;86.70;;;;;;5052803;28;19978;-65